sensor_id;sensor_type;location;lat;lon;timestamp;P1;durP1;ratioP1;P2;durP2;ratioP2
41923;SDS011;27613;48.116;11.656;2024-01-07T00:01:32;9.43;;;6.18;;
41923;SDS011;27613;48.116;11.656;2024-01-07T00:03:58;8.90;;;6.50;;
41923;SDS011;27613;48.116;11.656;2024-01-07T00:06:23;8.52;;;6.55;;
41923;SDS011;27613;48.116;11.656;2024-01-07T00:08:49;10.25;;;7.07;;
41923;SDS011;27613;48.116;11.656;2024-01-07T00:11:14;8.95;;;6.82;;
41923;SDS011;27613;48.116;11.656;2024-01-07T00:13:40;9.15;;;6.65;;
41923;SDS011;27613;48.116;11.656;2024-01-07T00:16:06;9.35;;;6.53;;
41923;SDS011;27613;48.116;11.656;2024-01-07T00:18:31;9.20;;;6.40;;
41923;SDS011;27613;48.116;11.656;2024-01-07T00:20:57;9.65;;;6.35;;
41923;SDS011;27613;48.116;11.656;2024-01-07T00:23:22;8.52;;;6.65;;
41923;SDS011;27613;48.116;11.656;2024-01-07T00:25:48;12.35;;;6.13;;
41923;SDS011;27613;48.116;11.656;2024-01-07T00:28:13;8.60;;;6.38;;
41923;SDS011;27613;48.116;11.656;2024-01-07T00:30:39;8.43;;;6.22;;
41923;SDS011;27613;48.116;11.656;2024-01-07T00:33:04;9.27;;;6.35;;
41923;SDS011;27613;48.116;11.656;2024-01-07T00:35:30;8.88;;;6.07;;
41923;SDS011;27613;48.116;11.656;2024-01-07T00:37:55;9.80;;;7.25;;
41923;SDS011;27613;48.116;11.656;2024-01-07T00:40:22;8.18;;;6.25;;
41923;SDS011;27613;48.116;11.656;2024-01-07T00:42:48;7.63;;;5.75;;
41923;SDS011;27613;48.116;11.656;2024-01-07T00:45:13;8.00;;;6.18;;
41923;SDS011;27613;48.116;11.656;2024-01-07T00:47:39;8.18;;;6.28;;
41923;SDS011;27613;48.116;11.656;2024-01-07T00:50:05;9.15;;;6.80;;
41923;SDS011;27613;48.116;11.656;2024-01-07T00:52:30;11.88;;;7.55;;
41923;SDS011;27613;48.116;11.656;2024-01-07T00:54:56;8.80;;;6.82;;
41923;SDS011;27613;48.116;11.656;2024-01-07T00:57:22;8.93;;;6.88;;
41923;SDS011;27613;48.116;11.656;2024-01-07T00:59:47;8.52;;;6.28;;
41923;SDS011;27613;48.116;11.656;2024-01-07T01:02:13;9.05;;;6.57;;
41923;SDS011;27613;48.116;11.656;2024-01-07T01:04:38;11.20;;;7.10;;
41923;SDS011;27613;48.116;11.656;2024-01-07T01:07:05;8.27;;;6.20;;
41923;SDS011;27613;48.116;11.656;2024-01-07T01:09:30;11.73;;;6.78;;
41923;SDS011;27613;48.116;11.656;2024-01-07T01:11:56;10.02;;;6.72;;
41923;SDS011;27613;48.116;11.656;2024-01-07T01:14:21;7.93;;;6.38;;
41923;SDS011;27613;48.116;11.656;2024-01-07T01:16:47;8.00;;;6.03;;
41923;SDS011;27613;48.116;11.656;2024-01-07T01:19:12;8.57;;;5.97;;
41923;SDS011;27613;48.116;11.656;2024-01-07T01:21:38;6.82;;;5.43;;
41923;SDS011;27613;48.116;11.656;2024-01-07T01:24:03;7.63;;;6.03;;
41923;SDS011;27613;48.116;11.656;2024-01-07T01:26:29;8.13;;;6.00;;
41923;SDS011;27613;48.116;11.656;2024-01-07T01:28:55;9.02;;;6.38;;
41923;SDS011;27613;48.116;11.656;2024-01-07T01:31:20;10.23;;;6.15;;
41923;SDS011;27613;48.116;11.656;2024-01-07T01:33:46;8.40;;;6.13;;
41923;SDS011;27613;48.116;11.656;2024-01-07T01:36:11;8.85;;;5.97;;
41923;SDS011;27613;48.116;11.656;2024-01-07T01:38:37;12.30;;;6.07;;
41923;SDS011;27613;48.116;11.656;2024-01-07T01:41:02;8.45;;;6.05;;
41923;SDS011;27613;48.116;11.656;2024-01-07T01:43:28;9.00;;;6.00;;
41923;SDS011;27613;48.116;11.656;2024-01-07T01:45:54;7.97;;;6.20;;
41923;SDS011;27613;48.116;11.656;2024-01-07T01:48:21;7.15;;;5.57;;
41923;SDS011;27613;48.116;11.656;2024-01-07T01:50:47;8.07;;;6.22;;
41923;SDS011;27613;48.116;11.656;2024-01-07T01:53:13;9.02;;;5.72;;
41923;SDS011;27613;48.116;11.656;2024-01-07T01:55:40;9.25;;;6.78;;
41923;SDS011;27613;48.116;11.656;2024-01-07T01:58:06;7.25;;;5.72;;
41923;SDS011;27613;48.116;11.656;2024-01-07T02:00:34;7.03;;;5.25;;
41923;SDS011;27613;48.116;11.656;2024-01-07T02:03:00;6.93;;;5.07;;
41923;SDS011;27613;48.116;11.656;2024-01-07T02:05:26;7.47;;;5.32;;
41923;SDS011;27613;48.116;11.656;2024-01-07T02:07:52;8.70;;;5.45;;
41923;SDS011;27613;48.116;11.656;2024-01-07T02:10:21;9.00;;;5.13;;
41923;SDS011;27613;48.116;11.656;2024-01-07T02:12:47;7.70;;;4.53;;
41923;SDS011;27613;48.116;11.656;2024-01-07T02:15:13;8.05;;;5.22;;
41923;SDS011;27613;48.116;11.656;2024-01-07T02:17:39;5.88;;;4.78;;
41923;SDS011;27613;48.116;11.656;2024-01-07T02:20:04;6.10;;;4.78;;
41923;SDS011;27613;48.116;11.656;2024-01-07T02:22:30;7.22;;;5.03;;
41923;SDS011;27613;48.116;11.656;2024-01-07T02:24:56;6.57;;;4.97;;
41923;SDS011;27613;48.116;11.656;2024-01-07T02:27:21;7.10;;;4.82;;
41923;SDS011;27613;48.116;11.656;2024-01-07T02:29:47;7.00;;;5.35;;
41923;SDS011;27613;48.116;11.656;2024-01-07T02:32:12;7.15;;;5.10;;
41923;SDS011;27613;48.116;11.656;2024-01-07T02:34:38;6.30;;;5.10;;
41923;SDS011;27613;48.116;11.656;2024-01-07T02:37:03;6.18;;;4.50;;
41923;SDS011;27613;48.116;11.656;2024-01-07T02:39:29;6.03;;;4.72;;
41923;SDS011;27613;48.116;11.656;2024-01-07T02:41:54;7.30;;;4.72;;
41923;SDS011;27613;48.116;11.656;2024-01-07T02:44:20;6.53;;;4.78;;
41923;SDS011;27613;48.116;11.656;2024-01-07T02:46:45;8.48;;;4.60;;
41923;SDS011;27613;48.116;11.656;2024-01-07T02:49:11;7.22;;;4.95;;
41923;SDS011;27613;48.116;11.656;2024-01-07T02:51:37;6.55;;;4.38;;
41923;SDS011;27613;48.116;11.656;2024-01-07T02:54:03;5.25;;;4.28;;
41923;SDS011;27613;48.116;11.656;2024-01-07T02:56:29;5.32;;;4.15;;
41923;SDS011;27613;48.116;11.656;2024-01-07T02:58:54;5.75;;;4.38;;
41923;SDS011;27613;48.116;11.656;2024-01-07T03:01:21;5.85;;;4.65;;
41923;SDS011;27613;48.116;11.656;2024-01-07T03:03:48;5.97;;;4.47;;
41923;SDS011;27613;48.116;11.656;2024-01-07T03:06:13;5.95;;;4.60;;
41923;SDS011;27613;48.116;11.656;2024-01-07T03:08:39;5.47;;;4.30;;
41923;SDS011;27613;48.116;11.656;2024-01-07T03:11:05;5.03;;;4.13;;
41923;SDS011;27613;48.116;11.656;2024-01-07T03:13:31;6.88;;;4.55;;
41923;SDS011;27613;48.116;11.656;2024-01-07T03:15:57;7.25;;;4.35;;
41923;SDS011;27613;48.116;11.656;2024-01-07T03:18:23;5.85;;;4.20;;
41923;SDS011;27613;48.116;11.656;2024-01-07T03:20:48;6.63;;;4.65;;
41923;SDS011;27613;48.116;11.656;2024-01-07T03:23:14;6.47;;;4.60;;
41923;SDS011;27613;48.116;11.656;2024-01-07T03:25:39;6.72;;;4.28;;
41923;SDS011;27613;48.116;11.656;2024-01-07T03:28:05;6.28;;;4.78;;
41923;SDS011;27613;48.116;11.656;2024-01-07T03:30:30;5.45;;;4.40;;
41923;SDS011;27613;48.116;11.656;2024-01-07T03:32:56;5.90;;;4.38;;
41923;SDS011;27613;48.116;11.656;2024-01-07T03:35:21;6.30;;;4.20;;
41923;SDS011;27613;48.116;11.656;2024-01-07T03:37:49;8.70;;;4.53;;
41923;SDS011;27613;48.116;11.656;2024-01-07T03:40:14;6.72;;;4.25;;
41923;SDS011;27613;48.116;11.656;2024-01-07T03:42:40;6.13;;;4.38;;
41923;SDS011;27613;48.116;11.656;2024-01-07T03:45:05;6.20;;;4.30;;
41923;SDS011;27613;48.116;11.656;2024-01-07T03:47:31;5.15;;;3.88;;
41923;SDS011;27613;48.116;11.656;2024-01-07T03:49:57;6.15;;;4.05;;
41923;SDS011;27613;48.116;11.656;2024-01-07T03:52:22;5.43;;;4.20;;
41923;SDS011;27613;48.116;11.656;2024-01-07T03:54:48;5.57;;;3.97;;
41923;SDS011;27613;48.116;11.656;2024-01-07T03:57:13;5.05;;;4.05;;
41923;SDS011;27613;48.116;11.656;2024-01-07T03:59:39;6.38;;;4.75;;
41923;SDS011;27613;48.116;11.656;2024-01-07T04:02:04;5.95;;;4.47;;
41923;SDS011;27613;48.116;11.656;2024-01-07T04:04:31;5.82;;;4.13;;
41923;SDS011;27613;48.116;11.656;2024-01-07T04:06:57;6.72;;;4.43;;
41923;SDS011;27613;48.116;11.656;2024-01-07T04:09:22;6.47;;;4.72;;
41923;SDS011;27613;48.116;11.656;2024-01-07T04:11:48;5.50;;;4.00;;
41923;SDS011;27613;48.116;11.656;2024-01-07T04:14:14;5.07;;;4.22;;
41923;SDS011;27613;48.116;11.656;2024-01-07T04:16:40;6.03;;;4.10;;
41923;SDS011;27613;48.116;11.656;2024-01-07T04:19:06;7.00;;;4.55;;
41923;SDS011;27613;48.116;11.656;2024-01-07T04:21:31;6.03;;;3.83;;
41923;SDS011;27613;48.116;11.656;2024-01-07T04:23:57;5.72;;;4.32;;
41923;SDS011;27613;48.116;11.656;2024-01-07T04:26:22;6.30;;;4.88;;
41923;SDS011;27613;48.116;11.656;2024-01-07T04:28:48;7.78;;;4.68;;
41923;SDS011;27613;48.116;11.656;2024-01-07T04:31:13;5.53;;;4.43;;
41923;SDS011;27613;48.116;11.656;2024-01-07T04:33:39;5.07;;;3.90;;
41923;SDS011;27613;48.116;11.656;2024-01-07T04:36:05;5.65;;;3.97;;
41923;SDS011;27613;48.116;11.656;2024-01-07T04:38:30;6.15;;;4.55;;
41923;SDS011;27613;48.116;11.656;2024-01-07T04:40:56;6.57;;;4.43;;
41923;SDS011;27613;48.116;11.656;2024-01-07T04:43:21;5.75;;;4.63;;
41923;SDS011;27613;48.116;11.656;2024-01-07T04:45:47;5.47;;;4.18;;
41923;SDS011;27613;48.116;11.656;2024-01-07T04:48:13;5.03;;;4.10;;
41923;SDS011;27613;48.116;11.656;2024-01-07T04:50:41;7.00;;;4.38;;
41923;SDS011;27613;48.116;11.656;2024-01-07T04:53:10;5.72;;;4.50;;
41923;SDS011;27613;48.116;11.656;2024-01-07T04:55:36;6.65;;;4.47;;
41923;SDS011;27613;48.116;11.656;2024-01-07T04:58:01;5.65;;;4.28;;
41923;SDS011;27613;48.116;11.656;2024-01-07T05:00:29;5.22;;;4.03;;
41923;SDS011;27613;48.116;11.656;2024-01-07T05:02:54;5.28;;;4.13;;
41923;SDS011;27613;48.116;11.656;2024-01-07T05:05:20;6.28;;;4.75;;
41923;SDS011;27613;48.116;11.656;2024-01-07T05:07:45;6.07;;;4.18;;
41923;SDS011;27613;48.116;11.656;2024-01-07T05:10:11;6.55;;;4.13;;
41923;SDS011;27613;48.116;11.656;2024-01-07T05:12:36;4.72;;;3.97;;
41923;SDS011;27613;48.116;11.656;2024-01-07T05:15:02;5.75;;;4.10;;
41923;SDS011;27613;48.116;11.656;2024-01-07T05:17:28;4.93;;;4.20;;
41923;SDS011;27613;48.116;11.656;2024-01-07T05:19:54;5.85;;;4.25;;
41923;SDS011;27613;48.116;11.656;2024-01-07T05:22:20;5.93;;;4.13;;
41923;SDS011;27613;48.116;11.656;2024-01-07T05:24:46;5.55;;;4.38;;
41923;SDS011;27613;48.116;11.656;2024-01-07T05:27:12;6.05;;;4.13;;
41923;SDS011;27613;48.116;11.656;2024-01-07T05:29:37;5.97;;;4.43;;
41923;SDS011;27613;48.116;11.656;2024-01-07T05:32:03;6.13;;;4.50;;
41923;SDS011;27613;48.116;11.656;2024-01-07T05:34:29;6.05;;;4.43;;
41923;SDS011;27613;48.116;11.656;2024-01-07T05:36:55;6.35;;;4.30;;
41923;SDS011;27613;48.116;11.656;2024-01-07T05:39:20;6.47;;;4.53;;
41923;SDS011;27613;48.116;11.656;2024-01-07T05:41:46;5.72;;;4.25;;
41923;SDS011;27613;48.116;11.656;2024-01-07T05:44:12;5.72;;;4.28;;
41923;SDS011;27613;48.116;11.656;2024-01-07T05:46:38;5.63;;;4.53;;
41923;SDS011;27613;48.116;11.656;2024-01-07T05:49:08;6.53;;;4.75;;
41923;SDS011;27613;48.116;11.656;2024-01-07T05:51:33;5.95;;;4.55;;
41923;SDS011;27613;48.116;11.656;2024-01-07T05:54:04;6.97;;;4.88;;
41923;SDS011;27613;48.116;11.656;2024-01-07T05:56:29;7.20;;;5.07;;
41923;SDS011;27613;48.116;11.656;2024-01-07T05:58:55;6.95;;;5.30;;
41923;SDS011;27613;48.116;11.656;2024-01-07T06:01:20;6.70;;;4.95;;
41923;SDS011;27613;48.116;11.656;2024-01-07T06:03:47;7.55;;;4.88;;
41923;SDS011;27613;48.116;11.656;2024-01-07T06:06:13;6.38;;;5.22;;
41923;SDS011;27613;48.116;11.656;2024-01-07T06:08:39;6.80;;;5.10;;
41923;SDS011;27613;48.116;11.656;2024-01-07T06:11:06;7.40;;;4.95;;
41923;SDS011;27613;48.116;11.656;2024-01-07T06:13:31;7.03;;;5.25;;
41923;SDS011;27613;48.116;11.656;2024-01-07T06:15:57;6.45;;;5.00;;
41923;SDS011;27613;48.116;11.656;2024-01-07T06:18:23;7.40;;;5.43;;
41923;SDS011;27613;48.116;11.656;2024-01-07T06:20:48;5.97;;;4.88;;
41923;SDS011;27613;48.116;11.656;2024-01-07T06:23:14;6.80;;;4.78;;
41923;SDS011;27613;48.116;11.656;2024-01-07T06:25:39;7.43;;;5.03;;
41923;SDS011;27613;48.116;11.656;2024-01-07T06:28:05;6.53;;;4.80;;
41923;SDS011;27613;48.116;11.656;2024-01-07T06:30:31;7.30;;;5.13;;
41923;SDS011;27613;48.116;11.656;2024-01-07T06:32:56;8.18;;;5.75;;
41923;SDS011;27613;48.116;11.656;2024-01-07T06:35:22;9.10;;;6.30;;
41923;SDS011;27613;48.116;11.656;2024-01-07T06:37:47;6.72;;;4.65;;
41923;SDS011;27613;48.116;11.656;2024-01-07T06:40:13;6.43;;;5.25;;
41923;SDS011;27613;48.116;11.656;2024-01-07T06:42:39;10.23;;;4.93;;
41923;SDS011;27613;48.116;11.656;2024-01-07T06:45:06;7.68;;;5.25;;
41923;SDS011;27613;48.116;11.656;2024-01-07T06:47:31;8.05;;;5.50;;
41923;SDS011;27613;48.116;11.656;2024-01-07T06:49:57;9.55;;;5.43;;
41923;SDS011;27613;48.116;11.656;2024-01-07T06:52:23;7.25;;;5.07;;
41923;SDS011;27613;48.116;11.656;2024-01-07T06:54:48;7.55;;;5.10;;
41923;SDS011;27613;48.116;11.656;2024-01-07T06:57:14;7.97;;;5.60;;
41923;SDS011;27613;48.116;11.656;2024-01-07T06:59:39;7.82;;;4.90;;
41923;SDS011;27613;48.116;11.656;2024-01-07T07:02:05;7.57;;;5.03;;
41923;SDS011;27613;48.116;11.656;2024-01-07T07:04:30;7.40;;;5.18;;
41923;SDS011;27613;48.116;11.656;2024-01-07T07:06:55;7.65;;;5.53;;
41923;SDS011;27613;48.116;11.656;2024-01-07T07:09:22;6.93;;;4.57;;
41923;SDS011;27613;48.116;11.656;2024-01-07T07:11:48;8.00;;;5.22;;
41923;SDS011;27613;48.116;11.656;2024-01-07T07:14:13;6.50;;;5.03;;
41923;SDS011;27613;48.116;11.656;2024-01-07T07:16:39;5.88;;;4.45;;
41923;SDS011;27613;48.116;11.656;2024-01-07T07:19:04;5.72;;;4.18;;
41923;SDS011;27613;48.116;11.656;2024-01-07T07:21:30;7.47;;;4.57;;
41923;SDS011;27613;48.116;11.656;2024-01-07T07:23:55;7.32;;;4.55;;
41923;SDS011;27613;48.116;11.656;2024-01-07T07:26:21;7.53;;;4.70;;
41923;SDS011;27613;48.116;11.656;2024-01-07T07:28:47;8.35;;;4.70;;
41923;SDS011;27613;48.116;11.656;2024-01-07T07:31:13;6.40;;;4.53;;
41923;SDS011;27613;48.116;11.656;2024-01-07T07:33:39;5.88;;;4.65;;
41923;SDS011;27613;48.116;11.656;2024-01-07T07:36:05;7.10;;;4.90;;
41923;SDS011;27613;48.116;11.656;2024-01-07T07:38:31;7.25;;;4.95;;
41923;SDS011;27613;48.116;11.656;2024-01-07T07:40:57;6.35;;;4.70;;
41923;SDS011;27613;48.116;11.656;2024-01-07T07:43:23;7.40;;;4.97;;
41923;SDS011;27613;48.116;11.656;2024-01-07T07:45:49;7.03;;;5.00;;
41923;SDS011;27613;48.116;11.656;2024-01-07T07:48:15;7.38;;;4.70;;
41923;SDS011;27613;48.116;11.656;2024-01-07T07:50:41;7.28;;;5.10;;
41923;SDS011;27613;48.116;11.656;2024-01-07T07:53:07;6.93;;;4.80;;
41923;SDS011;27613;48.116;11.656;2024-01-07T07:55:33;6.30;;;4.18;;
41923;SDS011;27613;48.116;11.656;2024-01-07T07:57:58;6.97;;;5.00;;
41923;SDS011;27613;48.116;11.656;2024-01-07T08:00:24;7.97;;;5.22;;
41923;SDS011;27613;48.116;11.656;2024-01-07T08:02:49;7.22;;;4.90;;
41923;SDS011;27613;48.116;11.656;2024-01-07T08:05:15;6.95;;;4.90;;
41923;SDS011;27613;48.116;11.656;2024-01-07T08:07:41;5.68;;;4.35;;
41923;SDS011;27613;48.116;11.656;2024-01-07T08:10:07;7.13;;;5.22;;
41923;SDS011;27613;48.116;11.656;2024-01-07T08:12:33;7.13;;;4.90;;
41923;SDS011;27613;48.116;11.656;2024-01-07T08:14:58;8.40;;;4.95;;
41923;SDS011;27613;48.116;11.656;2024-01-07T08:17:24;7.53;;;5.47;;
41923;SDS011;27613;48.116;11.656;2024-01-07T08:19:49;7.30;;;5.35;;
41923;SDS011;27613;48.116;11.656;2024-01-07T08:22:15;8.05;;;4.95;;
41923;SDS011;27613;48.116;11.656;2024-01-07T08:24:41;7.47;;;5.38;;
41923;SDS011;27613;48.116;11.656;2024-01-07T08:27:07;8.63;;;5.25;;
41923;SDS011;27613;48.116;11.656;2024-01-07T08:29:33;7.25;;;5.00;;
41923;SDS011;27613;48.116;11.656;2024-01-07T08:32:00;8.02;;;5.47;;
41923;SDS011;27613;48.116;11.656;2024-01-07T08:34:26;8.07;;;5.28;;
41923;SDS011;27613;48.116;11.656;2024-01-07T08:36:51;10.50;;;5.30;;
41923;SDS011;27613;48.116;11.656;2024-01-07T08:39:19;6.35;;;4.65;;
41923;SDS011;27613;48.116;11.656;2024-01-07T08:41:44;11.10;;;5.68;;
41923;SDS011;27613;48.116;11.656;2024-01-07T08:44:10;8.20;;;5.57;;
41923;SDS011;27613;48.116;11.656;2024-01-07T08:46:36;8.95;;;5.95;;
41923;SDS011;27613;48.116;11.656;2024-01-07T08:49:02;11.85;;;6.05;;
41923;SDS011;27613;48.116;11.656;2024-01-07T08:51:28;9.27;;;5.32;;
41923;SDS011;27613;48.116;11.656;2024-01-07T08:53:54;7.82;;;5.50;;
41923;SDS011;27613;48.116;11.656;2024-01-07T08:56:20;8.60;;;4.93;;
41923;SDS011;27613;48.116;11.656;2024-01-07T08:58:45;6.97;;;4.70;;
41923;SDS011;27613;48.116;11.656;2024-01-07T09:01:11;7.97;;;5.20;;
41923;SDS011;27613;48.116;11.656;2024-01-07T09:03:39;9.45;;;5.55;;
41923;SDS011;27613;48.116;11.656;2024-01-07T09:06:05;8.57;;;5.32;;
41923;SDS011;27613;48.116;11.656;2024-01-07T09:08:30;9.40;;;5.50;;
41923;SDS011;27613;48.116;11.656;2024-01-07T09:10:56;7.63;;;5.28;;
41923;SDS011;27613;48.116;11.656;2024-01-07T09:13:22;9.45;;;5.07;;
41923;SDS011;27613;48.116;11.656;2024-01-07T09:15:47;7.72;;;5.38;;
41923;SDS011;27613;48.116;11.656;2024-01-07T09:18:13;7.68;;;5.50;;
41923;SDS011;27613;48.116;11.656;2024-01-07T09:20:38;9.05;;;6.00;;
41923;SDS011;27613;48.116;11.656;2024-01-07T09:23:04;8.20;;;5.47;;
41923;SDS011;27613;48.116;11.656;2024-01-07T09:25:29;9.07;;;5.47;;
41923;SDS011;27613;48.116;11.656;2024-01-07T09:27:55;9.65;;;5.63;;
41923;SDS011;27613;48.116;11.656;2024-01-07T09:30:21;8.95;;;5.55;;
41923;SDS011;27613;48.116;11.656;2024-01-07T09:32:46;7.22;;;5.40;;
41923;SDS011;27613;48.116;11.656;2024-01-07T09:35:12;8.70;;;4.90;;
41923;SDS011;27613;48.116;11.656;2024-01-07T09:37:37;6.70;;;4.75;;
41923;SDS011;27613;48.116;11.656;2024-01-07T09:40:03;8.88;;;4.97;;
41923;SDS011;27613;48.116;11.656;2024-01-07T09:42:30;8.35;;;5.47;;
41923;SDS011;27613;48.116;11.656;2024-01-07T09:44:56;8.50;;;5.38;;
41923;SDS011;27613;48.116;11.656;2024-01-07T09:47:22;8.35;;;5.53;;
41923;SDS011;27613;48.116;11.656;2024-01-07T09:49:48;7.28;;;5.05;;
41923;SDS011;27613;48.116;11.656;2024-01-07T09:52:14;8.18;;;5.35;;
41923;SDS011;27613;48.116;11.656;2024-01-07T09:54:40;9.73;;;5.03;;
41923;SDS011;27613;48.116;11.656;2024-01-07T09:57:08;7.15;;;5.32;;
41923;SDS011;27613;48.116;11.656;2024-01-07T09:59:34;11.35;;;5.38;;
41923;SDS011;27613;48.116;11.656;2024-01-07T10:02:01;6.93;;;5.18;;
41923;SDS011;27613;48.116;11.656;2024-01-07T10:04:27;7.95;;;4.30;;
41923;SDS011;27613;48.116;11.656;2024-01-07T10:06:54;7.13;;;5.00;;
41923;SDS011;27613;48.116;11.656;2024-01-07T10:09:20;7.13;;;4.93;;
41923;SDS011;27613;48.116;11.656;2024-01-07T10:11:48;6.57;;;4.53;;
41923;SDS011;27613;48.116;11.656;2024-01-07T10:14:14;7.32;;;5.00;;
41923;SDS011;27613;48.116;11.656;2024-01-07T10:16:40;6.82;;;4.80;;
41923;SDS011;27613;48.116;11.656;2024-01-07T10:19:06;6.97;;;5.03;;
41923;SDS011;27613;48.116;11.656;2024-01-07T10:21:32;8.20;;;4.85;;
41923;SDS011;27613;48.116;11.656;2024-01-07T10:24:07;8.70;;;5.00;;
41923;SDS011;27613;48.116;11.656;2024-01-07T10:26:43;6.50;;;4.50;;
41923;SDS011;27613;48.116;11.656;2024-01-07T10:29:09;7.05;;;4.93;;
41923;SDS011;27613;48.116;11.656;2024-01-07T10:31:35;8.00;;;4.60;;
41923;SDS011;27613;48.116;11.656;2024-01-07T10:34:02;7.05;;;5.03;;
41923;SDS011;27613;48.116;11.656;2024-01-07T10:36:28;7.72;;;5.40;;
41923;SDS011;27613;48.116;11.656;2024-01-07T10:38:55;6.63;;;4.75;;
41923;SDS011;27613;48.116;11.656;2024-01-07T10:41:21;8.65;;;5.57;;
41923;SDS011;27613;48.116;11.656;2024-01-07T10:43:47;7.60;;;4.85;;
41923;SDS011;27613;48.116;11.656;2024-01-07T10:46:14;9.02;;;5.25;;
41923;SDS011;27613;48.116;11.656;2024-01-07T10:48:50;7.85;;;4.40;;
41923;SDS011;27613;48.116;11.656;2024-01-07T10:51:20;8.85;;;5.18;;
41923;SDS011;27613;48.116;11.656;2024-01-07T10:53:49;7.43;;;5.22;;
41923;SDS011;27613;48.116;11.656;2024-01-07T10:56:24;7.28;;;4.88;;
41923;SDS011;27613;48.116;11.656;2024-01-07T10:58:53;8.95;;;5.28;;
41923;SDS011;27613;48.116;11.656;2024-01-07T11:01:20;7.43;;;5.13;;
41923;SDS011;27613;48.116;11.656;2024-01-07T11:06:36;6.55;;;4.88;;
41923;SDS011;27613;48.116;11.656;2024-01-07T11:09:20;9.25;;;4.72;;
41923;SDS011;27613;48.116;11.656;2024-01-07T11:11:54;7.45;;;4.57;;
41923;SDS011;27613;48.116;11.656;2024-01-07T11:14:37;13.70;;;4.40;;
41923;SDS011;27613;48.116;11.656;2024-01-07T11:17:05;6.53;;;4.68;;
41923;SDS011;27613;48.116;11.656;2024-01-07T11:19:31;6.82;;;4.07;;
41923;SDS011;27613;48.116;11.656;2024-01-07T11:24:54;7.65;;;4.30;;
41923;SDS011;27613;48.116;11.656;2024-01-07T11:27:23;5.90;;;4.15;;
41923;SDS011;27613;48.116;11.656;2024-01-07T11:30:10;6.45;;;4.63;;
41923;SDS011;27613;48.116;11.656;2024-01-07T11:32:44;6.22;;;4.07;;
41923;SDS011;27613;48.116;11.656;2024-01-07T11:35:13;7.97;;;4.53;;
41923;SDS011;27613;48.116;11.656;2024-01-07T11:37:40;6.05;;;4.28;;
41923;SDS011;27613;48.116;11.656;2024-01-07T11:40:06;6.88;;;4.50;;
41923;SDS011;27613;48.116;11.656;2024-01-07T11:42:33;8.25;;;4.07;;
41923;SDS011;27613;48.116;11.656;2024-01-07T11:44:58;7.20;;;4.32;;
41923;SDS011;27613;48.116;11.656;2024-01-07T11:47:24;8.27;;;4.20;;
41923;SDS011;27613;48.116;11.656;2024-01-07T11:49:53;8.63;;;5.47;;
41923;SDS011;27613;48.116;11.656;2024-01-07T11:52:19;11.23;;;4.95;;
41923;SDS011;27613;48.116;11.656;2024-01-07T11:54:45;7.75;;;4.45;;
41923;SDS011;27613;48.116;11.656;2024-01-07T11:57:12;7.22;;;4.60;;
41923;SDS011;27613;48.116;11.656;2024-01-07T11:59:38;7.88;;;4.82;;
41923;SDS011;27613;48.116;11.656;2024-01-07T12:02:04;6.60;;;4.55;;
41923;SDS011;27613;48.116;11.656;2024-01-07T12:04:30;9.98;;;4.63;;
41923;SDS011;27613;48.116;11.656;2024-01-07T12:06:56;5.43;;;3.97;;
41923;SDS011;27613;48.116;11.656;2024-01-07T12:09:22;6.53;;;4.55;;
41923;SDS011;27613;48.116;11.656;2024-01-07T12:11:47;7.53;;;4.15;;
41923;SDS011;27613;48.116;11.656;2024-01-07T12:14:14;7.80;;;4.82;;
41923;SDS011;27613;48.116;11.656;2024-01-07T12:16:40;6.35;;;4.10;;
41923;SDS011;27613;48.116;11.656;2024-01-07T12:19:05;9.57;;;4.70;;
41923;SDS011;27613;48.116;11.656;2024-01-07T12:21:33;6.65;;;4.10;;
41923;SDS011;27613;48.116;11.656;2024-01-07T12:23:58;6.53;;;4.53;;
41923;SDS011;27613;48.116;11.656;2024-01-07T12:26:27;6.25;;;4.20;;
41923;SDS011;27613;48.116;11.656;2024-01-07T12:28:54;7.25;;;4.40;;
41923;SDS011;27613;48.116;11.656;2024-01-07T12:31:22;5.60;;;3.67;;
41923;SDS011;27613;48.116;11.656;2024-01-07T12:33:51;7.97;;;5.10;;
41923;SDS011;27613;48.116;11.656;2024-01-07T12:36:19;6.25;;;4.45;;
41923;SDS011;27613;48.116;11.656;2024-01-07T12:38:47;5.15;;;3.80;;
41923;SDS011;27613;48.116;11.656;2024-01-07T12:41:13;5.40;;;3.92;;
41923;SDS011;27613;48.116;11.656;2024-01-07T12:43:39;7.05;;;4.35;;
41923;SDS011;27613;48.116;11.656;2024-01-07T12:46:04;7.03;;;4.10;;
41923;SDS011;27613;48.116;11.656;2024-01-07T12:48:30;5.28;;;3.78;;
41923;SDS011;27613;48.116;11.656;2024-01-07T12:50:56;6.63;;;4.18;;
41923;SDS011;27613;48.116;11.656;2024-01-07T12:53:22;8.85;;;4.07;;
41923;SDS011;27613;48.116;11.656;2024-01-07T12:55:48;6.35;;;4.32;;
41923;SDS011;27613;48.116;11.656;2024-01-07T12:58:13;7.70;;;4.40;;
41923;SDS011;27613;48.116;11.656;2024-01-07T13:00:39;6.15;;;4.28;;
41923;SDS011;27613;48.116;11.656;2024-01-07T13:03:05;7.25;;;4.53;;
41923;SDS011;27613;48.116;11.656;2024-01-07T13:05:32;6.80;;;4.65;;
41923;SDS011;27613;48.116;11.656;2024-01-07T13:07:58;8.02;;;4.63;;
41923;SDS011;27613;48.116;11.656;2024-01-07T13:10:24;7.35;;;4.53;;
41923;SDS011;27613;48.116;11.656;2024-01-07T13:12:50;7.13;;;4.32;;
41923;SDS011;27613;48.116;11.656;2024-01-07T13:15:15;5.80;;;3.92;;
41923;SDS011;27613;48.116;11.656;2024-01-07T13:17:41;10.10;;;4.60;;
41923;SDS011;27613;48.116;11.656;2024-01-07T13:20:07;7.18;;;4.55;;
41923;SDS011;27613;48.116;11.656;2024-01-07T13:22:36;7.57;;;5.28;;
41923;SDS011;27613;48.116;11.656;2024-01-07T13:25:03;7.35;;;4.72;;
41923;SDS011;27613;48.116;11.656;2024-01-07T13:27:29;6.75;;;4.90;;
41923;SDS011;27613;48.116;11.656;2024-01-07T13:29:55;5.50;;;3.88;;
41923;SDS011;27613;48.116;11.656;2024-01-07T13:32:20;6.32;;;4.50;;
41923;SDS011;27613;48.116;11.656;2024-01-07T13:34:46;5.65;;;4.10;;
41923;SDS011;27613;48.116;11.656;2024-01-07T13:37:12;5.82;;;4.07;;
41923;SDS011;27613;48.116;11.656;2024-01-07T13:39:38;6.70;;;4.45;;
41923;SDS011;27613;48.116;11.656;2024-01-07T13:42:04;5.90;;;4.20;;
41923;SDS011;27613;48.116;11.656;2024-01-07T13:44:29;7.68;;;4.40;;
41923;SDS011;27613;48.116;11.656;2024-01-07T13:46:55;9.57;;;4.43;;
41923;SDS011;27613;48.116;11.656;2024-01-07T13:49:20;7.75;;;5.03;;
41923;SDS011;27613;48.116;11.656;2024-01-07T13:51:46;7.05;;;4.55;;
41923;SDS011;27613;48.116;11.656;2024-01-07T13:54:12;5.50;;;4.15;;
41923;SDS011;27613;48.116;11.656;2024-01-07T13:56:43;7.82;;;5.32;;
41923;SDS011;27613;48.116;11.656;2024-01-07T13:59:09;7.80;;;4.82;;
41923;SDS011;27613;48.116;11.656;2024-01-07T14:01:35;7.65;;;5.22;;
41923;SDS011;27613;48.116;11.656;2024-01-07T14:04:01;6.75;;;4.50;;
41923;SDS011;27613;48.116;11.656;2024-01-07T14:06:27;7.55;;;4.50;;
41923;SDS011;27613;48.116;11.656;2024-01-07T14:08:53;8.18;;;5.45;;
41923;SDS011;27613;48.116;11.656;2024-01-07T14:11:18;7.93;;;5.25;;
41923;SDS011;27613;48.116;11.656;2024-01-07T14:13:44;6.50;;;4.75;;
41923;SDS011;27613;48.116;11.656;2024-01-07T14:16:11;8.15;;;5.25;;
41923;SDS011;27613;48.116;11.656;2024-01-07T14:18:37;8.30;;;5.00;;
41923;SDS011;27613;48.116;11.656;2024-01-07T14:21:03;7.03;;;5.18;;
41923;SDS011;27613;48.116;11.656;2024-01-07T14:23:29;7.53;;;4.70;;
41923;SDS011;27613;48.116;11.656;2024-01-07T14:25:56;6.88;;;4.47;;
41923;SDS011;27613;48.116;11.656;2024-01-07T14:28:22;7.95;;;5.22;;
41923;SDS011;27613;48.116;11.656;2024-01-07T14:30:48;8.85;;;4.97;;
41923;SDS011;27613;48.116;11.656;2024-01-07T14:33:14;6.35;;;4.53;;